Time;durP1;ratioP1;P1;durP2;ratioP2;P2;SDS_P1;SDS_P2;PMS_P1;PMS_P2;Temp;Humidity;BMP_temperature;BMP_pressure;BME280_temperature;BME280_humidity;BME280_pressure;Samples;Min_cycle;Max_cycle;Signal;HPM_P1;HPM_P2
2021/05/08 00:00:40;;;;;;;3.87;1.10;;;;;;;11.07;87.91;98838.83;1809983;78;22317;-78
2021/05/08 00:03:09;;;;;;;1.20;0.90;;;;;;;11.08;87.51;98844.41;1797330;79;21163;-76
2021/05/08 00:05:37;;;;;;;2.37;1.20;;;;;;;11.09;87.29;98856.54;1784711;79;21138;-79
2021/05/08 00:08:05;;;;;;;2.50;1.10;;;;;;;11.02;88.27;98861.52;1786292;79;21559;-78
2021/05/08 00:10:32;;;;;;;6.55;1.07;;;;;;;10.99;88.49;98871.58;1785283;79;21179;-78
2021/05/08 00:13:00;;;;;;;5.05;1.10;;;;;;;10.96;89.22;98872.95;1791903;79;21697;-79
2021/05/08 00:15:27;;;;;;;4.03;1.20;;;;;;;10.89;89.75;98875.36;1803713;79;21150;-79
2021/05/08 00:17:54;;;;;;;2.30;1.10;;;;;;;10.87;89.33;98877.15;1811948;78;21157;-77
2021/05/08 00:20:22;;;;;;;2.33;1.07;;;;;;;10.86;89.32;98881.94;1804428;79;21150;-78
2021/05/08 00:22:50;;;;;;;1.27;0.95;;;;;;;10.80;89.91;98882.96;1789975;79;21998;-78
2021/05/08 00:25:18;;;;;;;1.72;1.00;;;;;;;10.83;86.52;98872.94;1737024;82;21165;-78
2021/05/08 00:27:45;;;;;;;2.55;0.95;;;;;;;10.81;87.16;98864.33;1746114;81;21200;-78
2021/05/08 00:30:15;;;;;;;5.55;0.78;;;;;;;10.80;87.34;98856.95;1752895;81;21177;-77
2021/05/08 00:32:43;;;;;;;3.35;1.10;;;;;;;10.81;87.28;98861.27;1742794;82;21177;-78
2021/05/08 00:35:10;;;;;;;0.85;0.70;;;;;;;10.79;86.79;98856.57;1745625;81;21629;-79
2021/05/08 00:37:38;;;;;;;0.75;0.70;;;;;;;10.72;87.28;98857.21;1753898;81;21214;-78
2021/05/08 00:40:07;;;;;;;1.87;0.60;;;;;;;10.66;87.40;98852.62;1766181;81;21196;-78
2021/05/08 00:42:34;;;;;;;0.93;0.70;;;;;;;10.68;86.14;98858.63;1768095;81;21144;-79
2021/05/08 00:45:04;;;;;;;1.27;0.68;;;;;;;10.55;87.64;98858.98;1766966;80;21146;-78
2021/05/08 00:47:37;;;;;;;5.15;0.90;;;;;;;10.57;87.21;98847.70;1779843;79;21185;-77
2021/05/08 00:50:05;;;;;;;0.82;0.53;;;;;;;10.49;88.10;98859.16;1750848;80;21148;-78
2021/05/08 00:52:33;;;;;;;1.27;0.70;;;;;;;10.52;86.88;98856.49;1792885;79;21158;-77
2021/05/08 00:55:01;;;;;;;0.75;0.65;;;;;;;10.46;87.60;98854.04;1738509;82;21193;-78
2021/05/08 00:57:28;;;;;;;2.17;1.00;;;;;;;10.41;88.17;98856.39;1735799;82;21191;-78
2021/05/08 00:59:55;;;;;;;2.30;0.80;;;;;;;10.40;86.96;98877.61;1740562;82;21173;-79
2021/05/08 01:02:24;;;;;;;1.30;0.65;;;;;;;10.39;86.75;98873.31;1767229;81;21141;-79
2021/05/08 01:04:54;;;;;;;2.08;0.70;;;;;;;10.29;88.76;98867.94;1737788;82;21181;-78
2021/05/08 01:07:21;;;;;;;1.30;0.80;;;;;;;10.25;88.56;98873.66;1787103;79;21169;-76
2021/05/08 01:09:50;;;;;;;1.37;0.90;;;;;;;10.20;89.07;98875.52;1799814;79;21157;-76
2021/05/08 01:12:17;;;;;;;0.82;0.60;;;;;;;10.09;89.70;98883.62;1787728;79;21143;-78
2021/05/08 01:14:46;;;;;;;0.65;0.55;;;;;;;10.11;89.24;98888.32;1801326;79;21314;-78
2021/05/08 01:17:14;;;;;;;3.50;1.10;;;;;;;10.04;89.55;98888.06;1799854;79;21168;-78
2021/05/08 01:19:42;;;;;;;2.55;0.75;;;;;;;10.07;89.11;98889.75;1805967;79;21619;-81
2021/05/08 01:22:09;;;;;;;1.45;0.90;;;;;;;10.00;89.83;98895.53;1745361;82;21687;-77
2021/05/08 01:24:37;;;;;;;1.27;0.72;;;;;;;10.00;89.75;98892.94;1766242;81;21209;-80
2021/05/08 01:27:05;;;;;;;1.62;0.90;;;;;;;10.03;89.02;98892.03;1745409;82;21173;-80
2021/05/08 01:29:32;;;;;;;1.45;0.98;;;;;;;9.92;89.46;98885.80;1756963;81;21145;-78
2021/05/08 01:32:00;;;;;;;0.90;0.70;;;;;;;9.98;89.58;98894.72;1753716;81;21633;-78
2021/05/08 01:34:29;;;;;;;4.20;1.20;;;;;;;9.93;89.78;98909.13;1735377;81;21170;-78
2021/05/08 01:36:57;;;;;;;1.22;0.80;;;;;;;9.98;88.56;98915.50;1750777;82;21646;-79
2021/05/08 01:39:25;;;;;;;1.90;0.88;;;;;;;9.90;89.96;98907.05;1737412;81;21175;-79
2021/05/08 01:41:53;;;;;;;3.35;1.10;;;;;;;9.91;88.42;98907.02;1709770;82;21173;-79
2021/05/08 01:44:22;;;;;;;2.45;1.07;;;;;;;9.89;88.44;98920.95;1742741;82;21169;-78
2021/05/08 01:46:50;;;;;;;0.85;0.65;;;;;;;9.87;88.78;98913.64;1759835;80;21186;-79
2021/05/08 01:49:18;;;;;;;1.07;0.80;;;;;;;9.82;89.25;98920.67;1758399;81;21149;-78
2021/05/08 01:51:46;;;;;;;1.22;0.90;;;;;;;9.80;89.40;98912.08;1749801;82;21677;-79
2021/05/08 01:54:16;;;;;;;4.10;0.93;;;;;;;9.75;89.85;98920.83;1757655;80;21185;-78
2021/05/08 01:56:45;;;;;;;2.90;1.07;;;;;;;9.79;89.58;98920.73;1748976;82;21717;-78
2021/05/08 01:59:14;;;;;;;2.60;1.00;;;;;;;9.74;89.79;98908.73;1751272;80;21161;-78
2021/05/08 02:01:42;;;;;;;3.25;0.95;;;;;;;9.70;90.01;98908.39;1747990;81;21210;-79
2021/05/08 02:04:10;;;;;;;1.20;0.78;;;;;;;9.73;89.67;98913.98;1756549;81;21150;-79
2021/05/08 02:06:37;;;;;;;2.77;0.90;;;;;;;9.73;90.03;98914.83;1720014;82;21172;-78
2021/05/08 02:09:12;;;;;;;2.80;0.75;;;;;;;9.70;89.92;98923.97;1760563;81;21162;-78
2021/05/08 02:11:41;;;;;;;1.12;0.80;;;;;;;9.67;90.85;98909.78;1749417;81;21182;-80
2021/05/08 02:14:09;;;;;;;2.10;0.90;;;;;;;9.67;90.81;98920.59;1725854;81;21184;-78
2021/05/08 02:16:36;;;;;;;1.55;0.95;;;;;;;9.70;89.96;98930.46;1749727;81;22311;-78
2021/05/08 02:19:04;;;;;;;1.55;1.05;;;;;;;9.68;90.16;98931.39;1754728;81;21168;-78
2021/05/08 02:21:35;;;;;;;2.67;1.70;;;;;;;9.72;89.48;98929.98;1762899;81;21172;-79
2021/05/08 02:24:05;;;;;;;4.42;1.00;;;;;;;9.66;90.09;98937.91;1762747;81;21230;-78
2021/05/08 02:26:32;;;;;;;4.05;1.20;;;;;;;9.68;89.94;98943.92;1765747;81;22026;-79
2021/05/08 02:29:00;;;;;;;4.12;1.15;;;;;;;9.70;89.47;98933.05;1764979;81;21198;-77
2021/05/08 02:31:28;;;;;;;2.45;1.00;;;;;;;9.74;88.88;98933.39;1757710;81;21189;-79
2021/05/08 02:33:55;;;;;;;1.20;0.80;;;;;;;9.78;87.36;98943.71;1806455;79;21524;-78
2021/05/08 02:36:25;;;;;;;2.62;0.80;;;;;;;9.72;88.52;98950.75;1713882;82;21143;-78
2021/05/08 02:38:53;;;;;;;1.95;1.00;;;;;;;9.72;87.80;98941.66;1754524;81;22232;-78
2021/05/08 02:41:20;;;;;;;1.02;0.85;;;;;;;9.72;88.81;98937.77;1744295;81;22037;-79
2021/05/08 02:43:48;;;;;;;1.72;0.93;;;;;;;9.73;87.86;98940.78;1721214;81;21190;-79
2021/05/08 02:46:15;;;;;;;3.42;1.10;;;;;;;9.74;87.54;98953.31;1749680;81;21466;-78
2021/05/08 02:48:43;;;;;;;2.30;1.30;;;;;;;9.71;87.62;98956.84;1749074;81;21582;-78
2021/05/08 02:51:10;;;;;;;2.08;1.10;;;;;;;9.73;87.29;98961.55;1739807;82;22247;-78
2021/05/08 02:53:38;;;;;;;2.80;1.25;;;;;;;9.65;88.42;98966.08;1735817;82;21153;-78
2021/05/08 02:56:07;;;;;;;2.60;1.17;;;;;;;9.71;88.06;98970.28;1799323;79;21173;-76
2021/05/08 02:58:36;;;;;;;3.60;1.20;;;;;;;9.75;87.86;98974.50;1807919;79;21158;-77
2021/05/08 03:01:04;;;;;;;1.72;1.00;;;;;;;9.79;87.69;98975.26;1795861;79;21161;-78
2021/05/08 03:03:31;;;;;;;5.75;1.17;;;;;;;9.80;88.14;98982.17;1800331;79;21148;-77
2021/05/08 03:05:59;;;;;;;2.77;1.10;;;;;;;9.82;88.25;98979.94;1715338;82;21175;-78
2021/05/08 03:08:28;;;;;;;3.95;1.72;;;;;;;9.88;87.96;98981.55;1764929;81;21169;-79
2021/05/08 03:10:57;;;;;;;3.40;1.50;;;;;;;9.91;87.76;98995.31;1758446;81;21142;-78
2021/05/08 03:13:25;;;;;;;3.25;1.60;;;;;;;9.91;87.91;98998.36;1785554;79;21148;-77
2021/05/08 03:15:53;;;;;;;2.47;1.45;;;;;;;9.92;87.21;98998.75;1796856;79;21610;-79
2021/05/08 03:18:21;;;;;;;2.75;1.60;;;;;;;9.89;88.30;98996.25;1791414;79;21158;-79
2021/05/08 03:20:49;;;;;;;3.05;1.30;;;;;;;9.91;87.17;98977.59;1770158;79;21156;-79
2021/05/08 03:23:16;;;;;;;2.98;1.60;;;;;;;9.85;87.50;98991.56;1790622;79;21698;-79
2021/05/08 03:25:45;;;;;;;3.35;1.50;;;;;;;9.75;88.49;98996.12;1740428;82;21150;-79
2021/05/08 03:28:12;;;;;;;3.20;1.67;;;;;;;9.73;89.09;98987.52;1764676;81;21559;-78
2021/05/08 03:30:41;;;;;;;3.05;1.80;;;;;;;9.68;88.94;98980.27;1766732;81;21184;-78
2021/05/08 03:33:08;;;;;;;3.50;1.87;;;;;;;9.66;89.13;98982.50;1742806;82;21189;-78
2021/05/08 03:35:37;;;;;;;4.45;1.70;;;;;;;9.69;87.14;98987.18;1807676;77;21597;-79
2021/05/08 03:38:04;;;;;;;3.95;2.12;;;;;;;9.68;87.67;98989.34;1804754;79;21662;-78
2021/05/08 03:40:31;;;;;;;4.87;1.80;;;;;;;9.71;87.73;99002.27;1795700;79;21162;-81
2021/05/08 03:42:59;;;;;;;2.75;1.75;;;;;;;9.73;87.99;99019.12;1783665;79;22040;-78
2021/05/08 03:45:27;;;;;;;3.60;1.98;;;;;;;9.75;87.83;99027.27;1798356;79;21171;-78
2021/05/08 03:47:54;;;;;;;4.62;1.98;;;;;;;9.82;87.13;99025.83;1784120;79;21640;-79
2021/05/08 03:50:22;;;;;;;4.15;2.40;;;;;;;9.84;87.00;99027.95;1738023;82;21144;-78
2021/05/08 03:52:49;;;;;;;3.55;1.90;;;;;;;9.86;86.55;99028.77;1755675;81;21178;-78
2021/05/08 03:55:18;;;;;;;3.62;2.10;;;;;;;9.88;86.60;99034.77;1760249;80;21175;-80
2021/05/08 03:57:46;;;;;;;3.20;2.00;;;;;;;9.88;86.74;99032.17;1792436;79;21165;-78
2021/05/08 04:00:15;;;;;;;5.50;2.40;;;;;;;9.89;86.36;99029.55;1793189;79;21144;-82
2021/05/08 04:02:51;;;;;;;3.60;2.10;;;;;;;9.92;86.39;99028.62;1804435;77;23118;-79
2021/05/08 04:05:19;;;;;;;4.97;2.60;;;;;;;9.90;85.89;99033.00;1731981;82;21193;-79
2021/05/08 04:07:46;;;;;;;3.80;2.20;;;;;;;9.89;86.76;99031.30;1759625;81;21149;-77
2021/05/08 04:10:14;;;;;;;6.03;2.27;;;;;;;9.93;86.36;99036.38;1782865;79;21161;-79
2021/05/08 04:12:41;;;;;;;5.37;2.70;;;;;;;9.92;86.47;99052.84;1794047;78;21130;-78
2021/05/08 04:15:10;;;;;;;4.53;2.52;;;;;;;9.94;86.55;99043.27;1711449;82;21185;-78
2021/05/08 04:17:37;;;;;;;4.33;2.75;;;;;;;9.96;86.93;99050.58;1721816;82;21143;-80
2021/05/08 04:20:06;;;;;;;4.12;2.10;;;;;;;10.02;86.67;99044.39;1737048;82;21169;-77
2021/05/08 04:22:33;;;;;;;7.97;2.75;;;;;;;10.05;86.10;99048.23;1707935;81;21991;-77
2021/05/08 04:25:00;;;;;;;5.10;2.90;;;;;;;10.03;86.24;99053.91;1804046;79;21627;-78
2021/05/08 04:27:28;;;;;;;7.40;2.95;;;;;;;10.05;85.76;99054.72;1790466;78;21148;-78
2021/05/08 04:29:57;;;;;;;5.40;3.40;;;;;;;10.05;85.87;99056.02;1798347;79;21190;-78
2021/05/08 04:32:25;;;;;;;6.10;3.17;;;;;;;10.03;86.38;99058.25;1799054;79;21130;-77
2021/05/08 04:34:52;;;;;;;5.58;3.20;;;;;;;10.02;86.11;99065.17;1802994;79;21163;-79
2021/05/08 04:37:19;;;;;;;5.25;3.17;;;;;;;10.00;85.84;99057.86;1798800;78;21559;-77
2021/05/08 04:39:47;;;;;;;10.15;3.37;;;;;;;9.96;86.63;99057.06;1800769;79;21615;-79
2021/05/08 04:42:15;;;;;;;5.45;2.92;;;;;;;9.89;86.27;99049.48;1788788;79;21145;-80
2021/05/08 04:44:42;;;;;;;5.90;3.33;;;;;;;9.98;85.82;99072.63;1793458;79;21172;-79
2021/05/08 04:47:12;;;;;;;8.50;4.17;;;;;;;10.01;86.01;99072.98;1780886;79;21674;-80
2021/05/08 04:49:40;;;;;;;6.78;3.27;;;;;;;10.12;85.21;99083.99;1801142;79;22304;-80
2021/05/08 04:52:08;;;;;;;7.00;3.58;;;;;;;10.13;85.51;99094.36;1806818;78;21134;-78
2021/05/08 04:54:35;;;;;;;6.67;3.40;;;;;;;10.24;85.19;99094.55;1805211;79;21626;-78
2021/05/08 04:57:03;;;;;;;5.40;3.27;;;;;;;10.32;85.02;99105.64;1808455;79;21152;-78
2021/05/08 04:59:31;;;;;;;5.92;3.15;;;;;;;10.44;84.52;99123.53;1791300;79;21127;-79
2021/05/08 05:01:58;;;;;;;5.62;3.20;;;;;;;10.53;84.06;99131.56;1778024;79;21177;-79
2021/05/08 05:04:26;;;;;;;6.30;3.40;;;;;;;10.56;83.23;99139.28;1795662;79;21217;-78
2021/05/08 05:06:53;;;;;;;5.17;2.87;;;;;;;10.63;83.27;99148.64;1779141;79;21465;-78
2021/05/08 05:09:23;;;;;;;5.05;2.98;;;;;;;10.70;82.27;99148.91;1790159;78;21548;-79
2021/05/08 05:11:50;;;;;;;6.10;2.85;;;;;;;10.71;81.52;99152.36;1735041;82;21162;-77
2021/05/08 05:14:17;;;;;;;6.97;2.52;;;;;;;10.72;81.11;99162.73;1720226;83;21182;-78
2021/05/08 05:16:45;;;;;;;5.05;2.42;;;;;;;10.76;81.12;99158.28;1741129;81;21213;-78
2021/05/08 05:19:12;;;;;;;2.87;1.90;;;;;;;10.71;79.57;99161.46;1735413;81;21169;-79
2021/05/08 05:21:39;;;;;;;5.20;2.37;;;;;;;10.79;79.75;99169.08;1734011;81;21633;-78
2021/05/08 05:24:08;;;;;;;5.45;2.95;;;;;;;10.81;79.45;99166.84;1745719;82;21197;-78
2021/05/08 05:26:35;;;;;;;5.70;2.92;;;;;;;10.76;80.02;99164.78;1787898;79;21166;-78
2021/05/08 05:29:03;;;;;;;8.35;3.10;;;;;;;10.75;79.24;99165.70;1787494;79;21153;-78
2021/05/08 05:31:30;;;;;;;7.10;3.05;;;;;;;10.81;79.97;99167.30;1783043;79;21177;-79
2021/05/08 05:33:57;;;;;;;6.72;3.27;;;;;;;10.78;77.70;99172.55;1793480;79;21658;-78
2021/05/08 05:36:25;;;;;;;8.15;3.30;;;;;;;10.83;78.14;99179.81;1801488;79;21171;-78
2021/05/08 05:38:52;;;;;;;5.60;2.80;;;;;;;10.88;78.30;99181.41;1774455;79;21191;-79
2021/05/08 05:41:20;;;;;;;5.15;2.67;;;;;;;10.86;78.28;99183.62;1734347;83;21175;-79
2021/05/08 05:43:47;;;;;;;5.08;2.98;;;;;;;10.87;78.00;99187.48;1752287;81;21706;-79
2021/05/08 05:46:15;;;;;;;6.90;3.02;;;;;;;10.73;76.29;99189.12;1773438;79;21460;-77
2021/05/08 05:48:42;;;;;;;5.65;2.80;;;;;;;10.78;76.68;99193.36;1783978;79;21122;-79
2021/05/08 05:51:10;;;;;;;8.45;3.35;;;;;;;10.74;76.86;99189.55;1796079;79;21126;-78
2021/05/08 05:53:37;;;;;;;5.90;2.47;;;;;;;10.77;76.76;99191.22;1784032;79;21163;-78
2021/05/08 05:56:05;;;;;;;5.87;3.10;;;;;;;10.81;76.37;99201.95;1787934;79;21624;-79
2021/05/08 05:58:32;;;;;;;6.10;3.00;;;;;;;10.90;77.11;99202.16;1791556;79;21125;-78
2021/05/08 06:00:59;;;;;;;4.10;2.05;;;;;;;11.03;76.46;99212.67;1787868;79;21237;-78
2021/05/08 06:03:26;;;;;;;6.37;2.22;;;;;;;11.18;76.76;99217.95;1799026;78;21141;-78
2021/05/08 06:05:54;;;;;;;6.50;2.58;;;;;;;11.25;75.25;99221.24;1813996;78;21170;-78
2021/05/08 06:08:22;;;;;;;5.10;1.90;;;;;;;11.19;71.08;99224.85;1800045;78;21917;-79
2021/05/08 06:10:49;;;;;;;3.20;1.75;;;;;;;11.20;71.32;99235.69;1734300;81;21178;-78
2021/05/08 06:13:16;;;;;;;3.33;2.17;;;;;;;11.33;69.87;99231.84;1755674;81;21212;-78
2021/05/08 06:15:43;;;;;;;3.83;2.42;;;;;;;11.44;71.13;99236.80;1760327;80;21479;-79
2021/05/08 06:18:11;;;;;;;5.00;2.00;;;;;;;11.59;70.31;99235.52;1776884;80;21168;-78
2021/05/08 06:20:38;;;;;;;5.35;2.12;;;;;;;11.66;69.84;99237.52;1742023;82;21169;-79
2021/05/08 06:23:06;;;;;;;6.30;2.80;;;;;;;11.79;70.62;99244.09;1780059;79;21166;-79
2021/05/08 06:25:34;;;;;;;7.75;2.92;;;;;;;11.87;71.67;99245.17;1739939;81;21193;-79
2021/05/08 06:28:04;;;;;;;5.62;2.70;;;;;;;11.94;71.69;99241.55;1722157;82;21172;-78
2021/05/08 06:30:31;;;;;;;3.90;2.47;;;;;;;11.91;70.01;99236.41;1749140;81;21623;-78
2021/05/08 06:32:58;;;;;;;6.00;3.17;;;;;;;11.90;70.95;99247.29;1744675;82;21169;-79
2021/05/08 06:35:25;;;;;;;10.55;3.40;;;;;;;11.96;71.49;99244.97;1784885;80;21161;-78
2021/05/08 06:37:53;;;;;;;7.72;2.87;;;;;;;11.90;71.07;99248.59;1792733;79;21216;-79
2021/05/08 06:40:20;;;;;;;4.40;2.60;;;;;;;11.90;71.97;99245.14;1798538;79;21173;-78
2021/05/08 06:42:48;;;;;;;10.40;2.80;;;;;;;11.93;71.73;99242.44;1808210;79;21476;-78
2021/05/08 06:45:15;;;;;;;6.12;3.33;;;;;;;11.90;71.57;99238.63;1741026;81;21168;-79
2021/05/08 06:47:42;;;;;;;10.28;3.42;;;;;;;12.02;71.41;99247.85;1752944;81;21166;-77
2021/05/08 06:50:11;;;;;;;5.30;3.10;;;;;;;12.11;71.85;99241.89;1752793;81;21160;-77
2021/05/08 06:52:39;;;;;;;6.83;3.12;;;;;;;12.21;70.74;99240.34;1727824;82;21622;-78
2021/05/08 06:55:07;;;;;;;7.95;4.03;;;;;;;12.30;71.58;99238.77;1760626;81;21184;-78
2021/05/08 06:57:34;;;;;;;7.97;2.55;;;;;;;12.38;69.60;99243.77;1754655;80;21142;-78
2021/05/08 07:00:02;;;;;;;4.12;2.67;;;;;;;12.38;69.68;99248.52;1749015;80;21169;-79
2021/05/08 07:02:29;;;;;;;4.75;2.62;;;;;;;12.45;68.52;99244.80;1752886;80;21378;-78
2021/05/08 07:04:57;;;;;;;5.25;3.00;;;;;;;12.43;68.65;99254.89;1754669;81;21181;-78
2021/05/08 07:07:24;;;;;;;4.50;2.70;;;;;;;12.35;67.56;99257.72;1783035;79;21745;-78
2021/05/08 07:09:52;;;;;;;6.72;2.95;;;;;;;12.39;67.82;99255.88;1810000;78;21502;-79
2021/05/08 07:12:20;;;;;;;7.85;3.45;;;;;;;12.40;68.66;99261.06;1769674;79;21667;-78
2021/05/08 07:14:47;;;;;;;7.53;3.72;;;;;;;12.33;68.81;99264.73;1794050;79;21130;-79
2021/05/08 07:17:14;;;;;;;7.83;2.67;;;;;;;12.39;69.54;99261.94;1807466;79;21166;-78
2021/05/08 07:19:43;;;;;;;7.53;2.85;;;;;;;12.45;68.63;99260.91;1788886;79;21120;-78
2021/05/08 07:22:11;;;;;;;6.15;3.10;;;;;;;12.50;69.35;99257.72;1785662;79;21640;-79
2021/05/08 07:24:38;;;;;;;6.80;2.80;;;;;;;12.57;69.78;99255.77;1788931;79;21171;-78
2021/05/08 07:27:06;;;;;;;4.17;2.58;;;;;;;12.75;68.59;99256.50;1771804;79;21174;-79
2021/05/08 07:29:33;;;;;;;10.43;3.33;;;;;;;12.90;67.47;99257.33;1790658;79;21183;-79
2021/05/08 07:32:01;;;;;;;7.85;3.02;;;;;;;13.13;68.24;99259.66;1804909;79;21157;-78
2021/05/08 07:34:28;;;;;;;6.10;3.05;;;;;;;13.24;64.35;99258.83;1807554;78;21586;-78
2021/05/08 07:36:55;;;;;;;7.15;2.70;;;;;;;13.45;66.15;99256.42;1770258;79;21182;-78
2021/05/08 07:39:24;;;;;;;5.85;3.22;;;;;;;13.61;63.11;99261.97;1787009;79;21132;-78
2021/05/08 07:41:51;;;;;;;5.70;2.60;;;;;;;13.77;62.47;99266.20;1796424;79;21989;-80
2021/05/08 07:44:19;;;;;;;7.05;2.60;;;;;;;13.79;62.36;99272.27;1789667;78;21175;-78
2021/05/08 07:46:46;;;;;;;6.30;2.87;;;;;;;14.06;63.41;99269.09;1804067;79;21189;-78
2021/05/08 07:49:14;;;;;;;8.75;2.80;;;;;;;13.93;62.04;99267.39;1796246;78;21619;-78
2021/05/08 07:51:41;;;;;;;6.55;2.98;;;;;;;13.86;62.28;99278.50;1802162;79;21143;-79
2021/05/08 07:54:09;;;;;;;7.33;2.83;;;;;;;13.70;63.06;99282.10;1784679;79;21685;-79
2021/05/08 07:56:37;;;;;;;5.10;3.15;;;;;;;13.67;62.98;99290.06;1800592;79;21158;-78
2021/05/08 07:59:05;;;;;;;8.30;3.20;;;;;;;13.46;62.88;99294.71;1748971;81;22037;-78
2021/05/08 08:01:32;;;;;;;7.53;3.10;;;;;;;13.37;63.68;99301.11;1786681;80;21623;-77
2021/05/08 08:04:00;;;;;;;4.78;2.80;;;;;;;13.35;63.39;99292.47;1726774;82;21177;-77
2021/05/08 08:06:28;;;;;;;6.17;2.85;;;;;;;13.07;62.92;99297.68;1733435;81;21140;-79
2021/05/08 08:08:55;;;;;;;6.70;3.10;;;;;;;13.10;64.06;99293.22;1749427;81;21187;-76
2021/05/08 08:11:23;;;;;;;6.17;2.95;;;;;;;13.12;64.43;99300.55;1747225;82;21205;-76
2021/05/08 08:13:50;;;;;;;7.50;3.08;;;;;;;12.97;63.97;99301.49;1746975;81;21675;-76
2021/05/08 08:16:18;;;;;;;5.12;2.85;;;;;;;12.86;63.78;99309.67;1747566;82;21189;-78
2021/05/08 08:18:45;;;;;;;4.75;2.83;;;;;;;12.79;64.06;99314.66;1744259;81;21184;-79
2021/05/08 08:21:13;;;;;;;5.72;2.77;;;;;;;12.69;63.55;99308.86;1794332;79;21621;-77
2021/05/08 08:23:40;;;;;;;3.95;2.70;;;;;;;12.63;63.87;99312.96;1729802;81;21209;-78
2021/05/08 08:26:08;;;;;;;5.75;3.10;;;;;;;12.66;64.14;99315.49;1746029;81;21170;-78
2021/05/08 08:28:35;;;;;;;8.05;3.10;;;;;;;12.62;63.98;99314.73;1743673;81;21175;-78
2021/05/08 08:31:03;;;;;;;7.78;2.87;;;;;;;12.68;63.93;99321.52;1745545;81;21154;-78
2021/05/08 08:33:30;;;;;;;4.65;2.83;;;;;;;12.73;64.26;99322.21;1745184;81;21197;-77
2021/05/08 08:35:58;;;;;;;6.97;3.00;;;;;;;12.71;63.67;99331.42;1752572;82;21182;-78
2021/05/08 08:38:25;;;;;;;5.08;3.02;;;;;;;12.71;63.49;99322.71;1732372;83;21178;-77
2021/05/08 08:40:52;;;;;;;6.05;2.60;;;;;;;12.78;63.45;99321.64;1723829;81;21211;-78
2021/05/08 08:43:20;;;;;;;5.53;2.92;;;;;;;12.85;63.41;99328.39;1750216;82;21704;-79
2021/05/08 08:45:47;;;;;;;6.45;2.95;;;;;;;12.88;62.84;99332.19;1794385;79;21466;-79
2021/05/08 08:48:14;;;;;;;7.33;2.70;;;;;;;12.92;62.44;99325.13;1784899;79;21159;-77
2021/05/08 08:50:43;;;;;;;4.53;2.45;;;;;;;13.01;62.51;99327.89;1795507;79;21162;-78
2021/05/08 08:53:12;;;;;;;6.03;2.70;;;;;;;13.05;62.06;99333.42;1782841;79;21169;-76
2021/05/08 08:55:48;;;;;;;5.80;2.40;;;;;;;13.06;61.37;99343.81;1792727;79;21205;-79
2021/05/08 08:58:15;;;;;;;6.03;2.52;;;;;;;13.15;62.44;99333.55;1787145;79;21166;-78
2021/05/08 09:00:42;;;;;;;11.08;2.70;;;;;;;13.13;61.64;99337.52;1788461;79;21163;-78
2021/05/08 09:03:09;;;;;;;4.12;2.37;;;;;;;13.17;62.19;99326.95;1779723;79;21618;-79
2021/05/08 09:05:37;;;;;;;5.62;2.60;;;;;;;13.26;62.37;99338.42;1770602;79;21162;-78
2021/05/08 09:08:09;;;;;;;5.00;2.60;;;;;;;13.06;63.55;99334.68;1771427;79;21127;-77
2021/05/08 09:10:35;;;;;;;6.28;2.62;;;;;;;13.08;64.61;99339.86;1727353;83;21182;-78
2021/05/08 09:13:04;;;;;;;5.28;2.70;;;;;;;13.16;64.17;99336.55;1753732;82;22065;-78
2021/05/08 09:15:38;;;;;;;5.33;2.67;;;;;;;13.14;64.17;99333.14;1792252;79;21124;-78
2021/05/08 09:18:08;;;;;;;5.60;2.50;;;;;;;13.22;64.07;99334.20;1785080;79;21631;-78
2021/05/08 09:20:47;;;;;;;4.58;2.50;;;;;;;13.07;63.53;99336.41;1798966;79;21128;-78
2021/05/08 09:23:23;;;;;;;6.55;2.67;;;;;;;13.19;63.85;99336.47;1792074;79;21155;-77
2021/05/08 09:26:11;;;;;;;4.83;2.77;;;;;;;13.16;63.52;99344.38;1786516;79;21179;-78
2021/05/08 09:28:41;;;;;;;3.85;2.52;;;;;;;13.39;63.94;99344.12;1780157;79;21114;-78
2021/05/08 09:31:14;;;;;;;6.33;2.92;;;;;;;13.44;64.08;99341.77;1789851;79;21679;-79
2021/05/08 09:33:51;;;;;;;5.72;2.20;;;;;;;13.46;62.34;99341.72;1801054;79;21601;-78
2021/05/08 09:36:19;;;;;;;6.53;2.17;;;;;;;13.58;60.85;99350.91;1769433;79;21115;-78
2021/05/08 09:38:46;;;;;;;5.80;2.30;;;;;;;13.77;62.17;99338.94;1803606;79;21127;-78
2021/05/08 09:41:17;;;;;;;4.62;2.00;;;;;;;13.95;58.43;99338.76;1800402;79;21213;-79
2021/05/08 09:43:44;;;;;;;10.48;2.15;;;;;;;14.30;58.89;99337.94;1735025;83;21562;-79
2021/05/08 09:46:26;;;;;;;3.55;1.95;;;;;;;14.64;56.79;99331.48;1752871;82;21149;-79
2021/05/08 09:49:15;;;;;;;7.22;2.10;;;;;;;14.88;59.11;99337.10;1782414;79;21217;-78
2021/05/08 09:51:43;;;;;;;2.70;1.70;;;;;;;15.06;56.40;99335.53;1726834;83;21165;-78
2021/05/08 09:54:15;;;;;;;3.72;1.65;;;;;;;15.16;56.16;99334.70;1752120;82;21634;-78
2021/05/08 09:56:48;;;;;;;5.62;1.60;;;;;;;15.22;50.19;99337.51;1775689;79;21151;-79
2021/05/08 09:59:33;;;;;;;5.65;1.70;;;;;;;15.30;51.08;99342.86;1788681;79;21280;-78
2021/05/08 10:02:09;;;;;;;3.22;1.65;;;;;;;15.31;48.55;99343.23;1767044;79;21200;-78
2021/05/08 10:04:45;;;;;;;2.90;1.55;;;;;;;15.26;49.57;99342.59;1792593;79;21195;-79
2021/05/08 10:07:21;;;;;;;7.72;1.72;;;;;;;15.24;50.50;99336.98;1788452;79;21158;-78
2021/05/08 10:09:59;;;;;;;8.93;1.77;;;;;;;15.15;49.18;99338.22;1785116;79;21163;-79
2021/05/08 10:12:28;;;;;;;3.22;1.55;;;;;;;15.15;49.77;99332.98;1777815;79;21166;-77
2021/05/08 10:14:58;;;;;;;5.97;2.22;;;;;;;15.11;50.45;99330.09;1798731;79;21130;-78
2021/05/08 10:17:30;;;;;;;7.67;2.25;;;;;;;14.94;49.30;99346.48;1788998;79;21634;-78
2021/05/08 10:20:09;;;;;;;5.60;1.80;;;;;;;14.71;50.18;99340.81;1807610;79;21256;-78
2021/05/08 10:23:09;;;;;;;3.35;1.60;;;;;;;14.71;52.00;99348.67;1779794;79;21161;-79
2021/05/08 10:25:37;;;;;;;7.72;2.15;;;;;;;14.56;52.29;99347.46;1806859;79;21144;-79
2021/05/08 10:28:07;;;;;;;3.58;2.05;;;;;;;14.38;53.57;99350.73;1800110;79;21158;-79
2021/05/08 10:30:42;;;;;;;4.08;1.50;;;;;;;14.17;53.26;99360.23;1797291;79;22218;-78
2021/05/08 10:33:21;;;;;;;5.37;2.00;;;;;;;14.15;53.03;99357.66;1792136;79;21602;-78
2021/05/08 10:35:51;;;;;;;8.20;1.95;;;;;;;14.44;55.99;99359.66;1800529;79;21122;-80
2021/05/08 10:38:27;;;;;;;3.15;1.55;;;;;;;14.71;52.85;99348.67;1741381;82;21161;-78
2021/05/08 10:40:58;;;;;;;5.25;1.60;;;;;;;15.08;52.10;99347.22;1744494;82;21165;-77
2021/05/08 10:43:42;;;;;;;4.60;1.62;;;;;;;15.41;50.75;99345.49;1786101;78;21154;-77
2021/05/08 10:46:15;;;;;;;6.75;1.37;;;;;;;15.78;49.76;99354.48;1737629;82;21161;-78
2021/05/08 10:52:03;;;;;;;4.67;1.90;;;;;;;16.60;45.83;99351.77;1820887;76;23830;-77
2021/05/08 10:54:45;;;;;;;6.30;1.50;;;;;;;16.81;47.51;99354.74;1786436;79;21131;-78
2021/05/08 10:57:20;;;;;;;6.40;1.80;;;;;;;17.01;47.64;99355.12;1785539;78;21131;-79
2021/05/08 11:00:07;;;;;;;4.72;1.75;;;;;;;17.05;47.80;99356.67;1772349;79;21097;-80
2021/05/08 11:02:47;;;;;;;6.67;1.60;;;;;;;17.07;47.66;99349.57;1796058;78;21546;-81
2021/05/08 11:05:35;;;;;;;3.37;1.92;;;;;;;17.08;46.24;99353.88;1798583;78;21152;-79
2021/05/08 11:08:30;;;;;;;4.05;2.15;;;;;;;16.80;46.00;99349.53;1785607;79;21151;-78
2021/05/08 11:11:03;;;;;;;5.75;1.90;;;;;;;16.83;45.67;99354.65;1764104;80;21182;-77
2021/05/08 11:13:47;;;;;;;5.03;1.60;;;;;;;16.64;44.17;99362.51;1772417;80;21454;-78
2021/05/08 11:16:19;;;;;;;3.27;1.30;;;;;;;16.51;46.47;99370.06;1732797;81;21171;-81
2021/05/08 11:18:52;;;;;;;8.45;1.52;;;;;;;16.44;46.71;99369.50;1748711;81;21614;-78
2021/05/08 11:21:32;;;;;;;3.33;1.40;;;;;;;16.34;47.32;99372.62;1761676;81;21200;-78
2021/05/08 11:24:09;;;;;;;13.08;1.90;;;;;;;16.20;47.31;99365.36;1747275;81;21183;-77
2021/05/08 11:26:41;;;;;;;3.08;1.65;;;;;;;16.25;48.71;99377.80;1762935;80;21635;-79
2021/05/08 11:29:25;;;;;;;8.90;1.85;;;;;;;16.13;48.86;99379.64;1764523;80;21172;-79
2021/05/08 11:31:58;;;;;;;5.40;1.65;;;;;;;16.03;50.65;99381.34;1742583;80;21172;-78
2021/05/08 11:34:28;;;;;;;7.37;1.57;;;;;;;15.93;54.90;99366.08;1751766;81;22127;-78
2021/05/08 11:37:08;;;;;;;1.55;1.20;;;;;;;15.85;54.93;99363.78;1744428;81;21157;-80
2021/05/08 11:39:44;;;;;;;2.42;1.40;;;;;;;15.61;45.26;99378.73;1754225;81;21125;-78
2021/05/08 11:42:25;;;;;;;2.50;1.22;;;;;;;15.47;49.07;99373.59;1758999;81;21212;-79
2021/05/08 11:44:58;;;;;;;2.70;1.50;;;;;;;15.40;51.36;99373.90;1743175;80;21192;-78
2021/05/08 11:47:30;;;;;;;3.35;1.62;;;;;;;15.34;53.87;99374.15;1755821;80;21287;-78